createdAt,value
2022-12-25T00:02:07.427Z,98.16
2022-12-25T00:06:19.570Z,98.24
2022-12-25T00:10:31.268Z,98.44
2022-12-25T00:14:42.997Z,98.78
2022-12-25T00:18:56.650Z,98.84
2022-12-25T00:23:08.360Z,99.08
2022-12-25T00:27:20.100Z,99.01
2022-12-25T00:31:31.942Z,99.04
2022-12-25T00:35:44.043Z,99.29
2022-12-25T00:39:55.728Z,99.18
2022-12-25T00:44:08.797Z,99.23
2022-12-25T00:48:20.510Z,99.22
2022-12-25T00:52:35.625Z,99.30
2022-12-25T00:56:47.609Z,99.10
2022-12-25T01:01:00.664Z,99.31
2022-12-25T01:05:12.321Z,99.44
2022-12-25T01:09:56.244Z,99.39
2022-12-25T01:14:08.274Z,99.49
2022-12-25T01:18:21.656Z,99.57
2022-12-25T01:22:33.369Z,99.72
2022-12-25T01:26:45.037Z,99.70
2022-12-25T01:30:56.811Z,99.74
2022-12-25T01:35:08.879Z,99.82
2022-12-25T01:39:20.589Z,99.79
2022-12-25T01:43:34.234Z,99.99
2022-12-25T01:47:46.123Z,100.00
2022-12-25T01:52:03.221Z,100.00
2022-12-25T01:56:15.033Z,100.00
2022-12-25T02:00:26.735Z,100.00
2022-12-25T02:05:01.375Z,99.91
2022-12-25T02:09:13.564Z,100.00
2022-12-25T02:13:25.351Z,100.00
2022-12-25T02:17:53.725Z,100.00
2022-12-25T02:22:42.450Z,100.00
2022-12-25T02:27:02.764Z,100.00
2022-12-25T02:31:26.117Z,100.00
2022-12-25T02:35:38.081Z,100.00
2022-12-25T02:40:00.519Z,99.99
2022-12-25T02:44:37.904Z,100.00
2022-12-25T02:49:16.253Z,99.63
2022-12-25T02:53:47.682Z,99.96
2022-12-25T02:58:23.949Z,99.67
2022-12-25T03:02:55.736Z,99.75
2022-12-25T03:07:12.337Z,99.74
2022-12-25T03:11:33.216Z,99.85
2022-12-25T03:16:04.976Z,99.90
2022-12-25T03:20:35.276Z,99.88
2022-12-25T03:25:07.026Z,100.00
2022-12-25T03:29:37.200Z,99.96
2022-12-25T03:34:29.860Z,100.00
2022-12-25T03:39:23.075Z,99.95
2022-12-25T03:44:35.388Z,100.00
2022-12-25T03:49:11.056Z,100.00
2022-12-25T03:54:21.448Z,100.00
2022-12-25T03:58:51.853Z,100.00
2022-12-25T04:03:22.449Z,100.00
2022-12-25T04:07:52.642Z,100.00
2022-12-25T04:12:23.440Z,100.00
2022-12-25T04:16:53.631Z,100.00
2022-12-25T04:21:23.777Z,100.00
2022-12-25T04:25:54.038Z,100.00
2022-12-25T04:30:24.915Z,100.00
2022-12-25T04:34:55.209Z,100.00
2022-12-25T04:39:07.023Z,100.00
2022-12-25T04:43:18.660Z,100.00
2022-12-25T04:47:30.512Z,100.00
2022-12-25T04:51:42.212Z,100.00
2022-12-25T04:56:01.527Z,100.00
2022-12-25T05:00:13.624Z,100.00
2022-12-25T05:04:25.328Z,100.00
2022-12-25T05:08:37.122Z,100.00
2022-12-25T05:12:48.858Z,99.73
2022-12-25T05:17:00.619Z,99.70
2022-12-25T05:21:12.945Z,99.28
2022-12-25T05:25:24.758Z,99.49
2022-12-25T05:29:36.534Z,98.99
2022-12-25T05:33:52.358Z,99.08
2022-12-25T05:38:05.064Z,98.93
2022-12-25T05:42:16.876Z,98.75
2022-12-25T05:46:28.636Z,98.90
2022-12-25T05:50:40.788Z,98.75
2022-12-25T05:54:52.578Z,98.86
2022-12-25T05:59:04.442Z,98.62
2022-12-25T06:03:18.949Z,98.76
2022-12-25T06:07:30.880Z,98.59
2022-12-25T06:11:42.520Z,98.77
2022-12-25T06:15:57.319Z,98.95
2022-12-25T06:20:09.743Z,99.02
2022-12-25T06:24:22.668Z,99.04
2022-12-25T06:28:34.825Z,99.19
2022-12-25T06:32:46.522Z,99.44
2022-12-25T06:37:00.616Z,99.38
2022-12-25T06:41:15.296Z,99.61
2022-12-25T06:45:27.333Z,99.88
2022-12-25T06:49:39.127Z,100.00
2022-12-25T06:53:52.386Z,100.00
2022-12-25T06:58:04.229Z,100.00
2022-12-25T07:02:21.808Z,100.00
2022-12-25T07:06:34.149Z,100.00
2022-12-25T07:10:45.818Z,100.00
2022-12-25T07:14:57.500Z,100.00
2022-12-25T07:19:11.496Z,100.00
2022-12-25T07:23:25.691Z,100.00
2022-12-25T07:27:37.589Z,100.00
2022-12-25T07:31:51.755Z,100.00
2022-12-25T07:36:03.896Z,100.00
2022-12-25T07:40:15.657Z,100.00
2022-12-25T07:44:27.420Z,100.00
2022-12-25T07:48:39.254Z,100.00
2022-12-25T07:52:51.582Z,100.00
2022-12-25T07:57:03.422Z,100.00
2022-12-25T08:01:19.436Z,100.00
2022-12-25T08:05:32.828Z,100.00
2022-12-25T08:09:44.727Z,100.00
2022-12-25T08:13:56.696Z,100.00
2022-12-25T08:18:08.553Z,100.00
2022-12-25T08:22:20.236Z,100.00
2022-12-25T08:26:32.041Z,100.00
2022-12-25T08:30:43.865Z,100.00
2022-12-25T08:34:55.748Z,100.00
2022-12-25T08:39:08.323Z,100.00
2022-12-25T08:43:20.077Z,100.00
2022-12-25T08:47:31.917Z,100.00
2022-12-25T08:51:44.813Z,100.00
2022-12-25T08:56:01.120Z,100.00
2022-12-25T09:00:13.340Z,100.00
2022-12-25T09:04:27.289Z,100.00
2022-12-25T09:08:44.193Z,100.00
2022-12-25T09:13:00.225Z,100.00
2022-12-25T09:17:12.086Z,100.00
2022-12-25T09:21:23.887Z,99.81
2022-12-25T09:25:35.615Z,100.00
2022-12-25T09:29:50.346Z,99.84
2022-12-25T09:34:03.174Z,99.64
2022-12-25T09:38:14.904Z,99.51
2022-12-25T09:42:31.421Z,99.58
2022-12-25T09:46:55.380Z,99.46
2022-12-25T09:51:13.177Z,99.41
2022-12-25T09:55:26.736Z,99.26
2022-12-25T09:59:47.475Z,99.12
2022-12-25T10:04:29.581Z,98.95
2022-12-25T10:09:09.761Z,98.88
2022-12-25T10:13:48.722Z,98.87
2022-12-25T10:18:41.677Z,99.01
2022-12-25T10:22:58.804Z,98.76
2022-12-25T10:27:20.566Z,98.96
2022-12-25T10:31:36.818Z,98.49
2022-12-25T10:35:51.624Z,98.90
2022-12-25T10:40:18.103Z,98.98
2022-12-25T10:44:30.340Z,98.62
2022-12-25T10:48:47.548Z,98.88
2022-12-25T10:53:09.353Z,98.37
2022-12-25T10:57:23.379Z,98.42
2022-12-25T11:01:35.388Z,98.28
2022-12-25T11:05:51.486Z,98.37
2022-12-25T11:10:26.223Z,98.48
2022-12-25T11:14:37.960Z,98.39
2022-12-25T11:18:52.548Z,98.37
2022-12-25T11:23:10.414Z,98.24
2022-12-25T11:27:33.552Z,98.13
2022-12-25T11:31:46.479Z,98.13
2022-12-25T11:36:01.123Z,98.08
2022-12-25T11:40:20.013Z,97.67
2022-12-25T11:44:56.796Z,97.89
2022-12-25T11:49:16.325Z,98.02
2022-12-25T11:53:30.962Z,97.87
2022-12-25T11:57:46.821Z,98.00
2022-12-25T12:02:10.080Z,97.75
2022-12-25T12:06:43.708Z,98.32
2022-12-25T12:11:18.718Z,98.37
2022-12-25T12:15:41.262Z,98.29
2022-12-25T12:19:52.946Z,98.31
2022-12-25T12:24:11.763Z,98.57
2022-12-25T12:28:27.800Z,98.72
2022-12-25T12:32:44.254Z,98.50
2022-12-25T12:37:05.411Z,98.61
2022-12-25T12:41:18.172Z,98.60
2022-12-25T12:45:40.296Z,98.86
2022-12-25T12:49:58.737Z,98.94
2022-12-25T12:54:25.430Z,98.91
2022-12-25T12:58:45.093Z,98.82
2022-12-25T13:03:26.495Z,98.73
2022-12-25T13:07:59.374Z,98.85
2022-12-25T13:12:12.884Z,98.97
2022-12-25T13:16:36.890Z,99.16
2022-12-25T13:20:56.492Z,99.20
2022-12-25T13:25:20.951Z,99.02
2022-12-25T13:29:37.079Z,99.04
2022-12-25T13:34:03.569Z,98.93
2022-12-25T13:38:18.185Z,98.97
2022-12-25T13:42:39.972Z,98.88
2022-12-25T13:46:51.964Z,99.01
2022-12-25T13:51:03.708Z,98.88
2022-12-25T13:55:23.846Z,98.77
2022-12-25T13:59:37.713Z,98.92
2022-12-25T14:03:49.441Z,98.89
2022-12-25T14:08:04.956Z,98.88
2022-12-25T14:12:19.429Z,98.91
2022-12-25T14:16:31.487Z,98.75
2022-12-25T14:20:55.429Z,99.28
2022-12-25T14:25:15.025Z,99.21
2022-12-25T14:29:32.466Z,99.11
2022-12-25T14:33:45.601Z,99.11
2022-12-25T14:38:02.660Z,98.96
2022-12-25T14:42:26.245Z,99.28
2022-12-25T14:46:38.053Z,99.40
2022-12-25T14:51:15.952Z,99.38
2022-12-25T14:55:29.819Z,99.60
2022-12-25T14:59:41.538Z,99.81
2022-12-25T15:04:07.301Z,99.61
2022-12-25T15:08:22.857Z,99.70
2022-12-25T15:12:34.466Z,99.39
2022-12-25T15:16:50.248Z,99.61
2022-12-25T15:21:02.599Z,99.49
2022-12-25T15:25:17.107Z,99.81
2022-12-25T15:30:07.809Z,99.42
2022-12-25T15:34:05.410Z,99.77
2022-12-25T15:38:17.008Z,99.79
2022-12-25T15:42:28.593Z,99.30
2022-12-25T15:46:40.209Z,99.48
2022-12-25T15:50:51.893Z,99.52
2022-12-25T15:55:03.717Z,99.72
2022-12-25T15:59:17.042Z,99.34
2022-12-25T16:03:29.169Z,99.57
2022-12-25T16:07:40.952Z,99.73
2022-12-25T16:11:52.549Z,99.42
2022-12-25T16:16:05.030Z,99.49
2022-12-25T16:20:16.747Z,99.45
2022-12-25T16:24:28.391Z,99.17
2022-12-25T16:28:40.012Z,98.84
2022-12-25T16:32:51.844Z,99.13
2022-12-25T16:37:04.334Z,98.94
2022-12-25T16:41:16.339Z,99.29
2022-12-25T16:45:28.203Z,99.31
2022-12-25T16:49:39.993Z,99.31
2022-12-25T16:53:53.230Z,99.60
2022-12-25T16:58:06.158Z,99.72
2022-12-25T17:02:19.785Z,99.81
2022-12-25T17:06:31.537Z,99.86
2022-12-25T17:10:43.160Z,99.98
2022-12-25T17:14:54.793Z,99.99
2022-12-25T17:19:12.844Z,100.00
2022-12-25T17:23:24.565Z,100.00
2022-12-25T17:27:36.246Z,100.00
2022-12-25T17:31:48.269Z,100.00
2022-12-25T17:36:04.446Z,100.00
2022-12-25T17:40:16.042Z,100.00
2022-12-25T17:44:27.643Z,100.00
2022-12-25T17:48:39.266Z,100.00
2022-12-25T17:52:52.499Z,100.00
2022-12-25T17:57:04.159Z,100.00
2022-12-25T18:01:16.633Z,100.00
2022-12-25T18:05:28.539Z,100.00
2022-12-25T18:09:40.196Z,100.00
2022-12-25T18:13:53.552Z,100.00
2022-12-25T18:18:05.827Z,100.00
2022-12-25T18:22:17.454Z,100.00
2022-12-25T18:26:29.090Z,100.00
2022-12-25T18:30:42.248Z,100.00
2022-12-25T18:34:54.973Z,100.00
2022-12-25T18:39:06.639Z,100.00
2022-12-25T18:43:18.360Z,99.90
2022-12-25T18:47:30.058Z,100.00
2022-12-25T18:51:41.779Z,100.00
2022-12-25T18:56:15.265Z,100.00
2022-12-25T19:00:28.152Z,99.99
2022-12-25T19:04:40.201Z,100.00
2022-12-25T19:08:52.381Z,99.94
2022-12-25T19:13:04.145Z,100.00
2022-12-25T19:17:17.518Z,100.00
2022-12-25T19:21:29.450Z,100.00
2022-12-25T19:25:41.124Z,100.00
2022-12-25T19:29:52.796Z,100.00
2022-12-25T19:34:29.314Z,100.00
2022-12-25T19:38:41.875Z,99.97
2022-12-25T19:42:53.737Z,99.57
2022-12-25T19:47:05.655Z,99.72
2022-12-25T19:51:23.179Z,99.67
2022-12-25T19:55:34.802Z,99.74
2022-12-25T19:59:46.429Z,99.80
2022-12-25T20:03:58.029Z,99.80
2022-12-25T20:08:10.484Z,99.78
2022-12-25T20:12:22.160Z,99.78
2022-12-25T20:16:37.798Z,99.63
2022-12-25T20:20:49.576Z,99.64
2022-12-25T20:25:01.364Z,99.85
2022-12-25T20:29:13.071Z,99.84
2022-12-25T20:33:25.152Z,99.63
2022-12-25T20:37:36.813Z,99.78
2022-12-25T20:41:48.462Z,99.88
2022-12-25T20:46:00.172Z,99.89
2022-12-25T20:50:11.823Z,99.89
2022-12-25T20:54:23.510Z,99.74
2022-12-25T20:58:35.317Z,99.68
2022-12-25T21:02:47.081Z,99.68
2022-12-25T21:06:58.791Z,99.51
2022-12-25T21:11:11.495Z,99.86
2022-12-25T21:15:24.643Z,99.84
2022-12-25T21:19:36.454Z,99.64
2022-12-25T21:23:48.346Z,99.75
2022-12-25T21:27:59.979Z,99.71
2022-12-25T21:32:30.252Z,99.86
2022-12-25T21:36:41.850Z,99.75
2022-12-25T21:40:53.514Z,99.89
2022-12-25T21:45:05.460Z,99.86
2022-12-25T21:49:36.990Z,99.62
2022-12-25T21:53:48.575Z,99.88
2022-12-25T21:58:00.521Z,99.89
2022-12-25T22:02:12.354Z,99.67
2022-12-25T22:06:42.650Z,99.63
2022-12-25T22:10:54.261Z,99.83
2022-12-25T22:15:09.500Z,99.38
2022-12-25T22:19:39.717Z,99.53
2022-12-25T22:23:51.360Z,99.73
2022-12-25T22:28:03.007Z,99.98
2022-12-25T22:32:16.161Z,99.58
2022-12-25T22:36:27.857Z,99.55
2022-12-25T22:40:39.518Z,99.80
2022-12-25T22:44:51.352Z,99.62
2022-12-25T22:49:03.172Z,99.81
2022-12-25T22:53:14.946Z,99.46
2022-12-25T22:57:26.629Z,99.76
2022-12-25T23:01:38.789Z,99.67
2022-12-25T23:05:55.297Z,99.88
2022-12-25T23:10:07.590Z,99.60
2022-12-25T23:14:37.843Z,99.88
2022-12-25T23:19:08.014Z,99.50
2022-12-25T23:23:38.381Z,99.93
2022-12-25T23:27:50.055Z,99.67
2022-12-25T23:32:04.088Z,99.61
2022-12-25T23:36:15.770Z,99.80
2022-12-25T23:40:27.404Z,99.72
2022-12-25T23:44:38.975Z,99.75
2022-12-25T23:48:50.629Z,100.00
2022-12-25T23:53:02.213Z,99.65
2022-12-25T23:57:13.780Z,99.71
